createdAt,value
2018-07-10T00:24:18.882Z,54.41
2018-07-10T00:26:49.393Z,54.71
2018-07-10T00:29:19.422Z,54.91
2018-07-10T00:31:49.321Z,54.59
2018-07-10T00:34:19.537Z,53.26
2018-07-10T00:36:50.084Z,53.61
2018-07-10T00:42:18.793Z,54.99
2018-07-10T00:44:49.124Z,55.37
2018-07-10T00:47:20.066Z,54.72
2018-07-10T00:49:51.453Z,54.92
2018-07-10T00:52:33.662Z,55.46
2018-07-10T00:55:04.414Z,55.90
2018-07-10T00:57:35.575Z,55.59
2018-07-10T01:00:06.036Z,55.51
2018-07-10T01:02:48.717Z,55.69
2018-07-10T01:05:19.458Z,55.60
2018-07-10T01:07:50.197Z,55.83
2018-07-10T01:10:21.739Z,55.69
2018-07-10T01:12:51.856Z,56.60
2018-07-10T01:15:23.369Z,56.20
2018-07-10T01:17:54.659Z,57.00
2018-07-10T01:20:24.641Z,56.49
2018-07-10T01:22:55.209Z,56.87
2018-07-10T01:25:25.839Z,56.43
2018-07-10T01:27:55.815Z,56.64
2018-07-10T01:30:25.766Z,56.70
2018-07-10T01:33:13.190Z,57.20
2018-07-10T01:35:43.086Z,58.10
2018-07-10T01:38:13.496Z,58.08
2018-07-10T01:40:44.345Z,59.20
2018-07-10T01:43:14.563Z,59.40
2018-07-10T01:45:44.301Z,57.91
2018-07-10T01:57:15.151Z,57.75
2018-07-10T01:59:45.265Z,58.30
2018-07-10T02:02:14.996Z,58.35
2018-07-10T02:04:44.972Z,58.63
2018-07-10T02:07:32.490Z,58.96
2018-07-10T02:10:02.824Z,59.40
2018-07-10T02:12:33.789Z,59.29
2018-07-10T02:15:04.097Z,58.96
2018-07-10T02:29:07.931Z,60.66
2018-07-10T02:31:38.073Z,60.71
2018-07-10T02:34:08.270Z,60.67
2018-07-10T02:36:37.996Z,60.69
2018-07-10T02:39:08.125Z,60.76
2018-07-10T02:41:38.223Z,60.68
2018-07-10T02:44:07.932Z,61.16
2018-07-10T02:49:41.704Z,61.30
2018-07-10T02:52:12.278Z,61.07
2018-07-10T03:07:54.858Z,61.83
2018-07-10T03:10:26.924Z,61.65
2018-07-10T03:12:57.307Z,62.06
2018-07-10T03:36:07.229Z,63.13
2018-07-10T03:38:39.310Z,61.79
2018-07-10T03:46:53.053Z,62.16
2018-07-10T03:49:24.062Z,61.86
2018-07-10T03:51:58.893Z,61.02
2018-07-10T03:54:31.606Z,61.19
2018-07-10T04:02:33.784Z,61.28
2018-07-10T04:07:41.852Z,62.32
2018-07-10T04:10:14.745Z,62.00
2018-07-10T04:12:46.815Z,62.64
2018-07-10T04:15:17.946Z,62.32
2018-07-10T04:18:05.127Z,62.56
2018-07-10T04:20:57.947Z,62.54
2018-07-10T04:23:45.167Z,62.25
2018-07-10T04:26:20.668Z,62.08
2018-07-10T04:29:02.732Z,62.39
2018-07-10T04:31:49.558Z,61.60
2018-07-10T04:34:20.550Z,61.96
2018-07-10T04:36:52.300Z,61.52
2018-07-10T04:39:22.304Z,62.14
2018-07-10T04:42:04.175Z,62.01
2018-07-10T04:44:39.140Z,62.06
2018-07-10T04:47:14.245Z,62.11
2018-07-10T04:50:05.290Z,61.52
2018-07-10T04:52:35.846Z,61.82
2018-07-10T04:55:15.370Z,61.53
2018-07-10T04:57:56.871Z,61.50
2018-07-10T05:00:27.641Z,61.28
2018-07-10T05:03:01.513Z,61.10
2018-07-10T05:05:33.814Z,61.46
2018-07-10T05:08:09.173Z,61.45
2018-07-10T05:10:40.109Z,61.81
2018-07-10T05:13:11.002Z,61.49
2018-07-10T05:15:50.212Z,61.43
2018-07-10T05:18:20.505Z,61.50
2018-07-10T05:20:51.514Z,61.80
2018-07-10T05:23:22.409Z,61.52
2018-07-10T05:26:02.934Z,61.55
2018-07-10T05:28:38.640Z,61.55
2018-07-10T05:31:10.565Z,61.28
2018-07-10T05:33:43.379Z,61.47
2018-07-10T05:36:13.394Z,61.55
2018-07-10T05:51:50.231Z,59.57
2018-07-10T05:54:20.748Z,60.14
2018-07-10T05:56:51.725Z,59.32
2018-07-10T05:59:21.780Z,60.25
2018-07-10T06:01:51.841Z,59.55
2018-07-10T06:04:21.522Z,59.79
2018-07-10T06:06:52.797Z,58.93
2018-07-10T06:09:22.441Z,59.18
2018-07-10T06:11:52.219Z,59.63
2018-07-10T06:14:22.324Z,60.26
2018-07-10T06:17:01.160Z,59.95
2018-07-10T06:19:30.845Z,59.66
2018-07-10T06:22:03.059Z,59.72
2018-07-10T06:24:32.792Z,60.43
2018-07-10T06:27:04.398Z,60.26
2018-07-10T06:29:56.273Z,59.50
2018-07-10T06:32:27.713Z,60.09
2018-07-10T06:35:08.701Z,59.72
2018-07-10T06:37:41.947Z,59.48
2018-07-10T06:40:16.640Z,60.85
2018-07-10T06:43:15.108Z,61.14
2018-07-10T06:45:50.708Z,61.58
2018-07-10T06:48:22.438Z,62.26
2018-07-10T06:50:52.500Z,62.13
2018-07-10T06:53:26.475Z,61.68
2018-07-10T06:55:58.426Z,61.57
2018-07-10T06:58:33.219Z,61.96
2018-07-10T07:01:02.924Z,61.95
2018-07-10T07:03:34.040Z,61.55
2018-07-10T07:06:05.287Z,61.54
2018-07-10T07:08:35.120Z,62.28
2018-07-10T07:11:05.051Z,61.50
2018-07-10T07:13:38.656Z,62.37
2018-07-10T07:16:08.564Z,62.59
2018-07-10T07:18:39.343Z,62.73
2018-07-10T07:21:18.360Z,62.92
2018-07-10T07:23:49.306Z,63.36
2018-07-10T07:26:19.753Z,62.80
2018-07-10T07:29:05.587Z,63.28
2018-07-10T07:31:35.966Z,62.52
2018-07-10T07:34:06.587Z,62.50
2018-07-10T07:39:36.024Z,61.92
2018-07-10T07:42:07.286Z,63.21
2018-07-10T07:50:52.277Z,62.40
2018-07-10T07:53:23.409Z,64.35
2018-07-10T07:55:53.840Z,64.55
2018-07-10T07:58:31.074Z,65.62
2018-07-10T08:01:02.161Z,64.60
2018-07-10T08:03:33.088Z,63.47
2018-07-10T08:06:08.945Z,63.18
2018-07-10T08:08:40.316Z,62.24
2018-07-10T08:11:10.708Z,61.83
2018-07-10T08:13:42.071Z,60.53
2018-07-10T08:16:12.329Z,61.57
2018-07-10T08:18:50.595Z,61.02
2018-07-10T08:21:21.133Z,62.37
2018-07-10T08:23:52.475Z,61.26
2018-07-10T08:26:24.605Z,61.14
2018-07-10T08:28:56.505Z,59.82
2018-07-10T08:31:27.134Z,60.21
2018-07-10T08:33:58.222Z,59.46
2018-07-10T08:36:51.762Z,60.20
2018-07-10T08:39:25.842Z,59.37
2018-07-10T08:41:57.723Z,58.79
2018-07-10T08:44:28.885Z,59.05
2018-07-10T08:46:59.926Z,58.62
2018-07-10T08:49:33.605Z,59.66
2018-07-10T08:54:57.628Z,58.34
2018-07-10T08:57:28.847Z,56.93
2018-07-10T09:12:16.538Z,51.05
2018-07-10T09:14:47.359Z,49.05
2018-07-10T09:20:28.030Z,46.57
2018-07-10T09:22:58.282Z,48.36
2018-07-10T09:34:29.992Z,54.11
2018-07-10T09:38:04.384Z,56.47
2018-07-10T09:40:38.699Z,59.39
2018-07-10T09:43:09.061Z,60.41
2018-07-10T09:45:39.576Z,61.45
2018-07-10T09:48:10.623Z,61.53
2018-07-10T09:50:44.771Z,61.41
2018-07-10T09:53:29.026Z,60.98
2018-07-10T10:01:39.709Z,55.18
2018-07-10T10:10:31.367Z,46.31
2018-07-10T10:13:12.633Z,43.90
2018-07-10T10:15:51.710Z,42.66
2018-07-10T10:18:23.933Z,44.36
2018-07-10T10:20:53.900Z,44.52
2018-07-10T10:23:28.409Z,45.21
2018-07-10T10:25:58.198Z,47.25
2018-07-10T10:28:27.894Z,49.93
2018-07-10T10:30:59.974Z,50.25
2018-07-10T10:33:29.767Z,52.43
2018-07-10T10:35:59.472Z,49.77
2018-07-10T10:38:38.188Z,49.05
2018-07-10T10:41:08.168Z,49.32
2018-07-10T10:43:38.149Z,48.15
2018-07-10T10:46:08.558Z,50.11
2018-07-10T10:48:38.372Z,52.23
2018-07-10T10:51:08.034Z,52.49
2018-07-10T10:53:43.767Z,53.86
2018-07-10T10:58:51.256Z,56.73
2018-07-10T11:01:21.375Z,57.22
2018-07-10T11:03:51.302Z,58.03
2018-07-10T11:06:28.283Z,58.37
2018-07-10T11:08:58.949Z,59.13
2018-07-10T11:11:31.097Z,59.44
2018-07-10T11:14:10.607Z,58.51
2018-07-10T11:19:40.444Z,60.42
2018-07-10T11:22:13.171Z,61.92
2018-07-10T11:24:57.418Z,61.24
2018-07-10T11:28:05.235Z,62.75
2018-07-10T11:30:35.628Z,61.59
2018-07-10T11:33:06.377Z,62.73
2018-07-10T11:35:37.279Z,61.26
2018-07-10T11:38:10.996Z,62.50
2018-07-10T11:40:43.189Z,62.64
2018-07-10T11:46:36.392Z,60.64
2018-07-10T11:49:18.606Z,58.87
2018-07-10T11:51:50.819Z,59.28
2018-07-10T11:54:20.681Z,57.33
2018-07-10T11:56:52.675Z,55.99
2018-07-10T11:59:23.790Z,54.71
2018-07-10T12:01:54.222Z,56.44
2018-07-10T12:04:27.199Z,55.25
2018-07-10T12:06:57.103Z,48.89
2018-07-10T12:09:40.978Z,45.03
2018-07-10T12:12:10.906Z,45.36
2018-07-10T12:14:40.835Z,44.28
2018-07-10T12:17:11.229Z,45.35
2018-07-10T12:19:42.385Z,44.11
2018-07-10T12:22:39.388Z,42.07
2018-07-10T12:25:09.764Z,40.09
2018-07-10T12:27:40.887Z,42.24
2018-07-10T12:30:10.765Z,41.76
2018-07-10T12:32:40.817Z,39.51
2018-07-10T12:35:13.120Z,36.57
2018-07-10T12:37:43.741Z,36.68
2018-07-10T12:40:14.723Z,38.34
2018-07-10T12:42:45.062Z,38.81
2018-07-10T12:45:15.875Z,39.22
2018-07-10T12:47:45.883Z,40.51
2018-07-10T12:50:24.109Z,40.64
2018-07-10T12:52:54.601Z,40.59
2018-07-10T12:55:26.299Z,37.81
2018-07-10T13:00:50.047Z,34.96
2018-07-10T13:03:23.275Z,38.69
2018-07-10T13:05:55.320Z,40.33
2018-07-10T13:08:26.495Z,41.99
2018-07-10T13:10:57.323Z,43.14
2018-07-10T13:13:27.163Z,42.96
2018-07-10T13:16:02.307Z,42.72
2018-07-10T13:18:34.868Z,40.71
2018-07-10T13:21:04.490Z,38.80
2018-07-10T13:23:34.742Z,39.35
2018-07-10T13:26:04.359Z,37.96
2018-07-10T13:28:35.486Z,38.64
2018-07-10T13:31:05.279Z,40.57
2018-07-10T13:33:35.020Z,43.14
2018-07-10T13:36:05.219Z,40.38
2018-07-10T13:38:35.560Z,37.19
2018-07-10T13:41:05.258Z,34.48
2018-07-10T13:43:36.263Z,34.45
2018-07-10T13:46:06.181Z,31.89
2018-07-10T13:48:47.009Z,29.71
2018-07-10T13:51:18.710Z,29.36
2018-07-10T13:53:49.543Z,28.82
2018-07-10T13:56:19.606Z,29.46
2018-07-10T13:59:04.304Z,24.72
2018-07-10T14:01:35.363Z,24.95
2018-07-10T14:04:05.782Z,26.72
2018-07-10T14:06:36.367Z,29.10
2018-07-10T14:09:06.279Z,27.57
2018-07-10T14:11:42.044Z,26.49
2018-07-10T14:14:12.883Z,24.64
2018-07-10T14:22:31.716Z,33.21
2018-07-10T14:25:01.428Z,26.93
2018-07-10T14:27:31.497Z,25.68
2018-07-10T14:30:02.323Z,25.13
2018-07-10T14:32:37.753Z,27.55
2018-07-10T14:35:07.373Z,30.18
2018-07-10T14:37:37.489Z,31.37
2018-07-10T14:40:07.280Z,30.51
2018-07-10T14:42:38.704Z,32.85
2018-07-10T14:45:08.688Z,34.87
2018-07-10T14:47:38.756Z,28.94
2018-07-10T14:50:08.500Z,27.33
2018-07-10T14:52:39.752Z,23.86
2018-07-10T14:55:09.961Z,22.96
2018-07-10T14:57:40.040Z,22.78
2018-07-10T15:00:10.140Z,22.70
2018-07-10T15:02:40.257Z,23.24
2018-07-10T15:05:09.921Z,25.82
2018-07-10T15:07:39.563Z,26.07
2018-07-10T15:10:12.045Z,26.26
2018-07-10T15:12:41.751Z,26.17
2018-07-10T15:15:11.912Z,30.06
2018-07-10T15:17:46.704Z,28.79
2018-07-10T15:26:05.067Z,26.40
2018-07-10T15:28:35.167Z,28.65
2018-07-10T15:31:04.969Z,29.82
2018-07-10T15:33:35.664Z,30.90
2018-07-10T15:36:06.873Z,29.78
2018-07-10T15:38:37.913Z,26.80
2018-07-10T15:41:08.318Z,26.31
2018-07-10T15:43:38.258Z,26.67
2018-07-10T15:46:13.366Z,28.55
2018-07-10T15:51:46.669Z,33.01
2018-07-10T15:54:16.915Z,34.59
2018-07-10T15:59:51.257Z,35.51
2018-07-10T16:08:29.140Z,35.06
2018-07-10T16:11:03.050Z,35.16
2018-07-10T16:26:32.829Z,35.47
2018-07-10T16:29:07.788Z,35.12
2018-07-10T16:31:41.363Z,35.14
2018-07-10T16:40:12.166Z,35.80
2018-07-10T16:42:48.304Z,36.39
2018-07-10T16:45:41.367Z,35.50
2018-07-10T16:53:08.865Z,36.36
2018-07-10T16:55:39.878Z,36.67
2018-07-10T16:58:10.526Z,36.75
2018-07-10T17:03:35.201Z,36.98
2018-07-10T17:06:20.068Z,37.49
2018-07-10T17:08:50.734Z,37.98
2018-07-10T17:14:26.897Z,37.36
2018-07-10T17:16:57.572Z,36.71
2018-07-10T17:19:31.331Z,36.89
2018-07-10T17:22:03.402Z,37.21
2018-07-10T17:24:34.883Z,37.60
2018-07-10T17:27:05.673Z,37.53
2018-07-10T17:29:36.940Z,37.82
2018-07-10T17:40:55.942Z,38.00
2018-07-10T17:43:27.333Z,38.18
2018-07-10T17:45:58.016Z,38.58
2018-07-10T17:48:40.931Z,38.82
2018-07-10T17:51:12.676Z,38.42
2018-07-10T17:53:50.352Z,38.41
2018-07-10T17:56:20.971Z,39.22
2018-07-10T17:58:57.764Z,38.70
2018-07-10T18:01:28.358Z,39.50
2018-07-10T18:10:03.839Z,38.95
2018-07-10T18:12:34.404Z,38.95
2018-07-10T18:15:05.074Z,39.42
2018-07-10T18:17:35.306Z,39.36
2018-07-10T18:20:05.767Z,39.50
2018-07-10T18:22:36.076Z,39.58
2018-07-10T18:25:11.911Z,40.32
2018-07-10T18:27:42.854Z,40.14
2018-07-10T18:30:12.988Z,41.09
2018-07-10T18:32:44.785Z,41.88
2018-07-10T18:35:14.668Z,41.93
2018-07-10T18:37:44.880Z,41.53
2018-07-10T18:40:15.054Z,41.91
2018-07-10T18:42:48.731Z,42.56
2018-07-10T18:45:18.938Z,42.76
2018-07-10T18:47:48.926Z,42.34
2018-07-10T18:50:19.208Z,43.34
2018-07-10T18:58:39.643Z,44.34
2018-07-10T19:01:37.248Z,43.24
2018-07-10T19:04:07.766Z,43.44
2018-07-10T19:06:37.887Z,44.01
2018-07-10T19:09:08.445Z,44.15
2018-07-10T19:11:39.027Z,43.85
2018-07-10T19:14:09.013Z,44.03
2018-07-10T19:16:41.788Z,44.42
2018-07-10T19:19:11.890Z,45.07
2018-07-10T19:21:46.849Z,44.58
2018-07-10T19:24:18.338Z,44.97
2018-07-10T19:26:49.507Z,45.14
2018-07-10T19:29:56.411Z,45.10
2018-07-10T19:35:25.894Z,47.05
2018-07-10T19:38:54.003Z,47.97
2018-07-10T19:41:54.325Z,48.51
2018-07-10T19:44:26.338Z,49.60
2018-07-10T19:47:00.627Z,49.55
2018-07-10T19:49:33.138Z,50.16
2018-07-10T19:52:14.233Z,50.63
2018-07-10T19:54:50.576Z,51.57
2018-07-10T19:57:45.581Z,52.04
2018-07-10T20:00:16.029Z,51.91
2018-07-10T20:02:46.380Z,52.51
2018-07-10T20:05:17.568Z,52.96
2018-07-10T20:07:52.351Z,53.26
2018-07-10T20:10:29.745Z,53.56
2018-07-10T20:14:03.833Z,54.03
2018-07-10T20:17:02.729Z,53.88
2018-07-10T20:38:27.768Z,56.65
2018-07-10T20:53:11.326Z,56.93
2018-07-10T20:56:01.873Z,57.74
2018-07-10T20:58:41.044Z,57.68
2018-07-10T21:03:57.280Z,58.04
2018-07-10T21:06:56.466Z,58.03
2018-07-10T21:09:35.655Z,58.13
2018-07-10T21:12:07.996Z,58.10
2018-07-10T21:15:07.536Z,58.06
2018-07-10T21:21:07.829Z,58.37
2018-07-10T21:23:48.587Z,58.00
2018-07-10T21:26:30.325Z,58.03
2018-07-10T21:29:14.127Z,58.12
2018-07-10T21:32:09.634Z,59.38
2018-07-10T21:34:49.267Z,60.71
2018-07-10T21:39:33.797Z,61.58
2018-07-10T21:42:34.349Z,62.39
2018-07-10T21:47:29.375Z,62.06
2018-07-10T21:50:02.192Z,62.25
2018-07-10T21:52:32.646Z,62.63
2018-07-10T22:02:12.320Z,61.97
2018-07-10T22:04:42.224Z,62.26
2018-07-10T22:07:14.085Z,62.17
2018-07-10T22:09:46.664Z,62.16
2018-07-10T22:12:23.829Z,62.32
2018-07-10T22:14:53.358Z,62.64
2018-07-10T22:17:41.579Z,62.76
2018-07-10T22:20:14.494Z,63.31
2018-07-10T22:22:46.767Z,62.97
2018-07-10T22:25:16.791Z,63.59
2018-07-10T22:27:46.465Z,63.70
2018-07-10T22:30:22.143Z,63.36
2018-07-10T22:33:02.161Z,63.70
2018-07-10T22:35:31.796Z,64.03
2018-07-10T22:40:58.345Z,64.63
2018-07-10T22:43:27.920Z,64.76
2018-07-10T22:45:57.539Z,65.17
2018-07-10T22:48:27.055Z,65.77
2018-07-10T22:50:56.700Z,65.70
2018-07-10T22:53:26.406Z,66.14
2018-07-10T22:55:57.340Z,66.02
2018-07-10T22:58:26.916Z,65.78
2018-07-10T23:00:56.538Z,66.36
2018-07-10T23:03:26.751Z,66.21
2018-07-10T23:05:56.515Z,66.26
2018-07-10T23:08:36.267Z,66.26
2018-07-10T23:11:08.134Z,66.46
2018-07-10T23:13:40.755Z,67.07
2018-07-10T23:16:10.710Z,66.93
2018-07-10T23:18:41.103Z,67.29
2018-07-10T23:21:14.503Z,67.68
2018-07-10T23:23:44.136Z,67.68
2018-07-10T23:26:15.827Z,68.14
2018-07-10T23:28:46.264Z,68.40
2018-07-10T23:31:16.077Z,67.98
2018-07-10T23:33:46.771Z,68.03
2018-07-10T23:36:16.366Z,68.61
2018-07-10T23:39:17.406Z,68.28
2018-07-10T23:41:57.003Z,68.77
2018-07-10T23:44:43.998Z,68.63
2018-07-10T23:47:40.969Z,68.81
2018-07-10T23:50:18.580Z,68.87
